Currently 54°F in Riverside (Orangecrest), California, USA
54°F
74°F / 54°F
2 mph SW
0.00"
Friday, May 7, 2021 11:46 PM PDT

Riverside (Orangecrest), California Weather Summary
Last 36 Hours

Temperature Winds Hourly Humidity Dewpoint
Time Report Norm Report Norm Max Gusts Precip. Rpt. Norm Rpt. Norm Pressure
1,3Fri 11:46 PM  54.5°F  61°F  2 mph SW  2 mph  6 mph  0.00"  86%  64%  50°F  48°F  N/A
Fri 11:00 PM  55.4°F  61°F  2 mph SW  2 mph  10 mph  0.00"  83%  61%  50°F  47°F  N/A
Fri 10:00 PM  56.6°F  62°F  5 mph SW  3 mph  12 mph  0.00"  79%  59%  50°F  47°F  N/A
Fri 09:00 PM  59.1°F  63°F  5 mph SW  3 mph  12 mph  0.00"  72%  56%  50°F  47°F  N/A
Fri 08:00 PM  61.4°F  65°F  6 mph W  5 mph  12 mph  0.00"  64%  52%  49°F  47°F  N/A
Fri 07:00 PM  64.9°F  68°F  6 mph W  6 mph  19 mph  0.00"  56%  48%  48°F  47°F  N/A
Fri 06:00 PM  67.1°F  70°F  9 mph NW  7 mph  18 mph  0.00"  52%  43%  48°F  46°F  N/A
Fri 05:00 PM  72.8°F  72°F  7 mph W  7 mph  15 mph  0.00"  42%  40%  48°F  46°F  N/A
Fri 04:00 PM  73.9°F  73°F  6 mph W  6 mph  14 mph  0.00"  41%  38%  48°F  45°F  N/A
2Fri 03:27 PM  74.3°F  74°F  7 mph W  6 mph  12 mph  ----  41%  38%  48°F  46°F  N/A
Fri 03:00 PM  73.4°F  74°F  6 mph W  6 mph  13 mph  0.00"  42%  38%  48°F  46°F  N/A
Fri 02:00 PM  71.6°F  74°F  6 mph W  6 mph  11 mph  0.00"  46%  37%  49°F  45°F  N/A
Fri 01:00 PM  69.6°F  73°F  4 mph W  5 mph  10 mph  0.00"  49%  39%  49°F  45°F  N/A
Fri 12:00 PM  68.0°F  71°F  2 mph W  4 mph  9 mph  0.00"  53%  41%  50°F  46°F  N/A
Fri 11:00 AM  63.8°F  69°F  2 mph W  3 mph  8 mph  0.00"  63%  46%  50°F  47°F  N/A
Fri 10:00 AM  60.1°F  66°F  3 mph W  2 mph  6 mph  0.00"  77%  53%  52°F  48°F  N/A
Fri 09:00 AM  57.0°F  63°F  4 mph W  2 mph  6 mph  0.00"  86%  61%  53°F  49°F  N/A
Fri 08:00 AM  55.7°F  60°F  1 mph W  2 mph  5 mph  0.00"  89%  69%  52°F  49°F  N/A
Fri 07:00 AM  55.6°F  57°F  calm  2 mph  4 mph  0.00"  90%  74%  53°F  48°F  N/A
Fri 06:00 AM  55.0°F  56°F  2 mph W  2 mph  5 mph  0.00"  91%  75%  52°F  48°F  N/A
Fri 05:00 AM  55.2°F  56°F  3 mph W  2 mph  6 mph  0.00"  90%  74%  52°F  48°F  N/A
Fri 04:00 AM  55.3°F  57°F  2 mph W  2 mph  8 mph  0.00"  91%  73%  52°F  48°F  N/A
Fri 03:00 AM  55.2°F  57°F  3 mph W  2 mph  6 mph  0.00"  90%  71%  52°F  48°F  N/A
Fri 02:00 AM  55.1°F  58°F  3 mph W  2 mph  8 mph  0.00"  90%  69%  52°F  48°F  N/A
Fri 01:00 AM  55.1°F  59°F  3 mph W  2 mph  9 mph  0.00"  90%  67%  52°F  47°F  N/A
Fri 12:00 AM  55.2°F  60°F  2 mph W  2 mph  7 mph  0.00"  87%  65%  51°F  47°F  N/A
Thu 11:00 PM  56.4°F  61°F  4 mph W  2 mph  8 mph  0.00"  84%  61%  52°F  47°F  N/A
Thu 10:00 PM  57.7°F  62°F  2 mph W  3 mph  8 mph  0.00"  81%  59%  52°F  47°F  N/A
Thu 09:00 PM  59.3°F  63°F  4 mph W  3 mph  10 mph  0.00"  76%  56%  51°F  47°F  N/A
Thu 08:00 PM  61.4°F  65°F  4 mph W  4 mph  12 mph  0.00"  70%  52%  51°F  46°F  N/A
Thu 07:00 PM  65.1°F  68°F  5 mph W  6 mph  16 mph  0.00"  60%  47%  50°F  46°F  N/A
Thu 06:00 PM  70.6°F  70°F  6 mph W  7 mph  17 mph  0.00"  48%  42%  49°F  46°F  N/A
Thu 05:00 PM  73.7°F  72°F  8 mph W  7 mph  16 mph  0.00"  39%  39%  46°F  45°F  N/A
Thu 04:00 PM  76.1°F  74°F  5 mph W  6 mph  15 mph  0.00"  40%  38%  49°F  45°F  N/A
Thu 03:00 PM  77.1°F  74°F  8 mph W  5 mph  14 mph  0.00"  35%  38%  46°F  46°F  N/A
Thu 02:00 PM  77.4°F  74°F  6 mph S  6 mph  15 mph  0.00"  37%  37%  48°F  45°F  N/A
Thu 01:00 PM  75.7°F  73°F  7 mph W  5 mph  12 mph  0.00"  39%  38%  48°F  45°F  N/A
Thu 12:00 PM  72.6°F  71°F  4 mph W  4 mph  11 mph  0.00"  46%  41%  50°F  45°F  N/A

  1. Current weather data. No green row appears if the current weather data is also the high or low for the current day.
  2. High temperature for the current day.
  3. Low temperature for the current day.

The Riverside (Orangecrest), California weather pages are a service of WeatherCurrents.
Copyright ©2021  WeatherCurrents. All rights reserved. - Submit questions and comments - Privacy Policy

This page automatically refreshes every 10 minutes.